Pfugerville's Hourly Summary for Saturday, March 18, 2017
Hour Temp
(f)
RH
(%)
Solar Rad.
(MJ/m2)
Rainfall
(in)
Wind
(mph)
3/18/2017 12:00 AM 67 100 0 0 8.28
3/18/2017 1:00 AM 65 100 0 0 6.32
3/18/2017 2:00 AM 64 100 0 0 3.27
3/18/2017 3:00 AM 63 100 0 0 2.8
3/18/2017 4:00 AM 63 100 0 0 3.34
3/18/2017 5:00 AM 64 100 0 0 4.98
3/18/2017 6:00 AM 64 100 0 0 4.97
3/18/2017 7:00 AM 64 100 0 0 5.82
3/18/2017 8:00 AM 63 100 0.01 0 5.31
3/18/2017 9:00 AM 63 100 0.12 0 3.19
3/18/2017 10:00 AM 64 100 0.32 0 2.59
3/18/2017 11:00 AM 66 100 0.92 0 4.04
3/18/2017 12:00 PM 69 100 1.34 0 6.3
3/18/2017 1:00 PM 73 99 1.95 0 8.04
3/18/2017 2:00 PM 75 82 2.22 0 7.79
3/18/2017 3:00 PM 77 69 2.39 0 8.81
3/18/2017 4:00 PM 79 61 2.68 0 9.04
3/18/2017 5:00 PM 80 58 1.41 0 8.47
3/18/2017 6:00 PM 80 55 0.5 0 7.43
3/18/2017 7:00 PM 80 57 0.26 0 5.31
3/18/2017 8:00 PM 77 63 0.05 0 1.68
3/18/2017 9:00 PM 73 69 0 0 0.5
3/18/2017 10:00 PM 71 80 0 0 3.66
3/18/2017 11:00 PM 69 96 0 0 4.58
Data Summary 69 87 14.17 0.00 5.27